Pagrindinis puslapis
METAR-TAF:

METAR-TAF

Oro uostai :

Qurayyat, Saudo Arabija

platuma: 31-24N, ilguma: 037-16E, Aukštis: 509 m

Dabartinis oras

Ataskaita buvo paskelbta 1 valandą ir 13 minutes, ne 09:00 UTC
Vėjas 12 kt iš Šiaurės Vakarų
Temperatūra 32°C
Drėgmė 29%
Slėgis 1013 hPa
Matomumas 10 km arba daugiau
nėra debesų žemiau 1500 m ir nėra kamuolinių lietaus debesų

METAR: OEGT 170900Z 32012KT CAVOK 32/12 Q1013 NOSIG

Laikas: 13:13 (10:13 UTC)

Prognozė

Ataskaita buvo paskelbta 11 valandos ir 13 minutes, ne 23:00 UTC
Prognozė galioja nuo 17 metu 00 UTC su 18 metu 06 UTC
Vėjas 6 kt iš Vakarų
Matomumas: 7000 m
Tapsmas
nuo 17 metu 06 UTC su 17 metu 08 UTC
Vėjas 13 kt iš Šiaurės/Šiaurės Vakarų

TAF: OEGT 162300Z 1700/1806 28006KT 7000 NSC BECMG 1706/1708 33013KT

Orai ataskaitas ir orų prognozės (METAR, TAF).

turimą stotys yra geltonos ir raudonos taškus žemėlapyje.

Perkelti pele per norėdami pamatyti stoties vardą.

Tada spustelėkite, norėdami matyti oro stebėjimo ir prognozės.

Norėdami pakeisti žemėlapį: spustelėkite ant žalios mygtukų su juodo kryžiaus žemyn,; žalią mygtuką su brūkšneliu, jei norite nutolinti; arba žalių rodyklių gretimoms žemėlapius.


METAR-TAF: